sensor_id;sensor_type;location;lat;lon;timestamp;P1;durP1;ratioP1;P2;durP2;ratioP2
14903;SDS011;7543;53.148;8.234;2022-12-18T00:00:09;36.13;;;10.20;;
14903;SDS011;7543;53.148;8.234;2022-12-18T00:02:41;32.73;;;11.03;;
14903;SDS011;7543;53.148;8.234;2022-12-18T00:05:11;35.97;;;11.33;;
14903;SDS011;7543;53.148;8.234;2022-12-18T00:07:39;34.60;;;12.47;;
14903;SDS011;7543;53.148;8.234;2022-12-18T00:10:07;43.53;;;13.87;;
14903;SDS011;7543;53.148;8.234;2022-12-18T00:12:38;40.10;;;11.97;;
14903;SDS011;7543;53.148;8.234;2022-12-18T00:15:06;43.60;;;12.80;;
14903;SDS011;7543;53.148;8.234;2022-12-18T00:17:35;39.03;;;12.37;;
14903;SDS011;7543;53.148;8.234;2022-12-18T00:20:03;34.37;;;11.67;;
14903;SDS011;7543;53.148;8.234;2022-12-18T00:22:33;42.93;;;13.10;;
14903;SDS011;7543;53.148;8.234;2022-12-18T00:25:01;41.10;;;12.63;;
14903;SDS011;7543;53.148;8.234;2022-12-18T00:27:30;47.20;;;13.83;;
14903;SDS011;7543;53.148;8.234;2022-12-18T00:29:58;38.83;;;13.47;;
14903;SDS011;7543;53.148;8.234;2022-12-18T00:32:26;45.70;;;15.13;;
14903;SDS011;7543;53.148;8.234;2022-12-18T00:34:55;42.30;;;11.67;;
14903;SDS011;7543;53.148;8.234;2022-12-18T00:37:23;34.17;;;11.40;;
14903;SDS011;7543;53.148;8.234;2022-12-18T00:39:52;38.73;;;11.03;;
14903;SDS011;7543;53.148;8.234;2022-12-18T00:42:20;36.43;;;11.60;;
14903;SDS011;7543;53.148;8.234;2022-12-18T00:45:06;32.87;;;11.20;;
14903;SDS011;7543;53.148;8.234;2022-12-18T00:47:35;32.43;;;11.80;;
14903;SDS011;7543;53.148;8.234;2022-12-18T00:50:03;31.80;;;10.03;;
14903;SDS011;7543;53.148;8.234;2022-12-18T00:52:32;29.47;;;11.33;;
14903;SDS011;7543;53.148;8.234;2022-12-18T00:55:01;36.43;;;11.87;;
14903;SDS011;7543;53.148;8.234;2022-12-18T00:57:29;33.40;;;11.70;;
14903;SDS011;7543;53.148;8.234;2022-12-18T00:59:58;46.13;;;12.83;;
14903;SDS011;7543;53.148;8.234;2022-12-18T01:02:26;29.13;;;10.63;;
14903;SDS011;7543;53.148;8.234;2022-12-18T01:04:54;39.67;;;11.73;;
14903;SDS011;7543;53.148;8.234;2022-12-18T01:07:22;28.97;;;10.20;;
14903;SDS011;7543;53.148;8.234;2022-12-18T01:09:50;24.33;;;8.60;;
14903;SDS011;7543;53.148;8.234;2022-12-18T01:12:20;30.27;;;9.67;;
14903;SDS011;7543;53.148;8.234;2022-12-18T01:14:51;28.93;;;9.97;;
14903;SDS011;7543;53.148;8.234;2022-12-18T01:17:19;30.77;;;10.83;;
14903;SDS011;7543;53.148;8.234;2022-12-18T01:19:47;21.33;;;9.20;;
14903;SDS011;7543;53.148;8.234;2022-12-18T01:22:15;21.80;;;9.13;;
14903;SDS011;7543;53.148;8.234;2022-12-18T01:24:45;25.40;;;9.93;;
14903;SDS011;7543;53.148;8.234;2022-12-18T01:27:13;31.03;;;8.67;;
14903;SDS011;7543;53.148;8.234;2022-12-18T01:29:42;25.53;;;8.73;;
14903;SDS011;7543;53.148;8.234;2022-12-18T01:32:11;24.37;;;9.37;;
14903;SDS011;7543;53.148;8.234;2022-12-18T01:34:39;25.50;;;9.00;;
14903;SDS011;7543;53.148;8.234;2022-12-18T01:37:07;22.30;;;8.10;;
14903;SDS011;7543;53.148;8.234;2022-12-18T01:39:35;34.30;;;9.10;;
14903;SDS011;7543;53.148;8.234;2022-12-18T01:42:05;22.13;;;8.33;;
14903;SDS011;7543;53.148;8.234;2022-12-18T01:47:49;17.10;;;8.30;;
14903;SDS011;7543;53.148;8.234;2022-12-18T01:50:20;21.77;;;8.20;;
14903;SDS011;7543;53.148;8.234;2022-12-18T01:52:50;22.07;;;8.73;;
14903;SDS011;7543;53.148;8.234;2022-12-18T01:55:22;23.27;;;8.77;;
14903;SDS011;7543;53.148;8.234;2022-12-18T01:57:51;26.97;;;8.03;;
14903;SDS011;7543;53.148;8.234;2022-12-18T02:00:22;20.03;;;7.90;;
14903;SDS011;7543;53.148;8.234;2022-12-18T02:02:53;23.37;;;7.17;;
14903;SDS011;7543;53.148;8.234;2022-12-18T02:05:23;28.53;;;7.87;;
14903;SDS011;7543;53.148;8.234;2022-12-18T02:07:59;17.07;;;7.93;;
14903;SDS011;7543;53.148;8.234;2022-12-18T02:10:33;26.30;;;8.20;;
14903;SDS011;7543;53.148;8.234;2022-12-18T02:13:06;17.93;;;7.93;;
14903;SDS011;7543;53.148;8.234;2022-12-18T02:15:41;27.53;;;8.80;;
14903;SDS011;7543;53.148;8.234;2022-12-18T02:18:14;15.97;;;7.57;;
14903;SDS011;7543;53.148;8.234;2022-12-18T02:20:47;20.23;;;7.33;;
14903;SDS011;7543;53.148;8.234;2022-12-18T02:23:20;24.77;;;7.63;;
14903;SDS011;7543;53.148;8.234;2022-12-18T02:26:04;21.03;;;7.93;;
14903;SDS011;7543;53.148;8.234;2022-12-18T02:28:37;27.37;;;9.07;;
14903;SDS011;7543;53.148;8.234;2022-12-18T02:31:11;18.27;;;7.17;;
14903;SDS011;7543;53.148;8.234;2022-12-18T02:33:41;20.50;;;6.97;;
14903;SDS011;7543;53.148;8.234;2022-12-18T02:36:13;13.97;;;6.93;;
14903;SDS011;7543;53.148;8.234;2022-12-18T02:38:43;27.77;;;8.07;;
14903;SDS011;7543;53.148;8.234;2022-12-18T02:41:15;21.60;;;7.47;;
14903;SDS011;7543;53.148;8.234;2022-12-18T02:43:47;24.73;;;7.87;;
14903;SDS011;7543;53.148;8.234;2022-12-18T02:46:25;22.03;;;7.90;;
14903;SDS011;7543;53.148;8.234;2022-12-18T02:48:59;21.93;;;6.87;;
14903;SDS011;7543;53.148;8.234;2022-12-18T02:51:35;21.93;;;6.93;;
14903;SDS011;7543;53.148;8.234;2022-12-18T02:54:09;14.93;;;6.97;;
14903;SDS011;7543;53.148;8.234;2022-12-18T02:56:42;17.67;;;7.20;;
14903;SDS011;7543;53.148;8.234;2022-12-18T02:59:17;18.67;;;7.17;;
14903;SDS011;7543;53.148;8.234;2022-12-18T03:01:54;25.20;;;7.53;;
14903;SDS011;7543;53.148;8.234;2022-12-18T03:04:26;17.07;;;7.03;;
14903;SDS011;7543;53.148;8.234;2022-12-18T03:06:57;19.47;;;6.90;;
14903;SDS011;7543;53.148;8.234;2022-12-18T03:09:29;24.10;;;7.87;;
14903;SDS011;7543;53.148;8.234;2022-12-18T03:12:02;21.20;;;6.83;;
14903;SDS011;7543;53.148;8.234;2022-12-18T03:14:51;11.07;;;5.87;;
14903;SDS011;7543;53.148;8.234;2022-12-18T03:17:22;18.63;;;7.80;;
14903;SDS011;7543;53.148;8.234;2022-12-18T03:19:52;16.67;;;6.03;;
14903;SDS011;7543;53.148;8.234;2022-12-18T03:22:21;20.23;;;6.53;;
14903;SDS011;7543;53.148;8.234;2022-12-18T03:24:53;15.37;;;6.13;;
14903;SDS011;7543;53.148;8.234;2022-12-18T03:27:23;18.60;;;5.93;;
14903;SDS011;7543;53.148;8.234;2022-12-18T03:29:55;21.23;;;6.33;;
14903;SDS011;7543;53.148;8.234;2022-12-18T03:32:36;16.63;;;5.80;;
14903;SDS011;7543;53.148;8.234;2022-12-18T03:35:08;19.30;;;6.97;;
14903;SDS011;7543;53.148;8.234;2022-12-18T03:37:38;17.37;;;6.90;;
14903;SDS011;7543;53.148;8.234;2022-12-18T03:40:08;16.83;;;6.13;;
14903;SDS011;7543;53.148;8.234;2022-12-18T03:42:39;18.33;;;6.70;;
14903;SDS011;7543;53.148;8.234;2022-12-18T03:45:12;19.17;;;7.33;;
14903;SDS011;7543;53.148;8.234;2022-12-18T03:47:44;20.83;;;6.70;;
14903;SDS011;7543;53.148;8.234;2022-12-18T03:50:18;19.77;;;6.20;;
14903;SDS011;7543;53.148;8.234;2022-12-18T03:52:51;16.60;;;5.93;;
14903;SDS011;7543;53.148;8.234;2022-12-18T03:55:23;11.23;;;5.27;;
14903;SDS011;7543;53.148;8.234;2022-12-18T03:58:00;14.17;;;6.00;;
14903;SDS011;7543;53.148;8.234;2022-12-18T04:00:39;16.83;;;6.60;;
14903;SDS011;7543;53.148;8.234;2022-12-18T04:03:09;12.87;;;5.90;;
14903;SDS011;7543;53.148;8.234;2022-12-18T04:05:46;17.00;;;5.70;;
14903;SDS011;7543;53.148;8.234;2022-12-18T04:08:18;23.10;;;8.27;;
14903;SDS011;7543;53.148;8.234;2022-12-18T04:10:56;16.70;;;6.93;;
14903;SDS011;7543;53.148;8.234;2022-12-18T04:13:29;11.97;;;4.97;;
14903;SDS011;7543;53.148;8.234;2022-12-18T04:16:00;14.70;;;5.83;;
14903;SDS011;7543;53.148;8.234;2022-12-18T04:18:28;20.47;;;5.83;;
14903;SDS011;7543;53.148;8.234;2022-12-18T04:20:57;17.93;;;6.50;;
14903;SDS011;7543;53.148;8.234;2022-12-18T04:23:25;11.43;;;5.77;;
14903;SDS011;7543;53.148;8.234;2022-12-18T04:25:57;11.53;;;6.30;;
14903;SDS011;7543;53.148;8.234;2022-12-18T04:28:49;14.87;;;6.70;;
14903;SDS011;7543;53.148;8.234;2022-12-18T04:31:18;11.57;;;5.90;;
14903;SDS011;7543;53.148;8.234;2022-12-18T04:33:47;16.10;;;6.60;;
14903;SDS011;7543;53.148;8.234;2022-12-18T04:36:15;16.43;;;6.33;;
14903;SDS011;7543;53.148;8.234;2022-12-18T04:38:45;16.47;;;6.00;;
14903;SDS011;7543;53.148;8.234;2022-12-18T04:41:16;12.80;;;4.97;;
14903;SDS011;7543;53.148;8.234;2022-12-18T04:43:47;12.30;;;6.07;;
14903;SDS011;7543;53.148;8.234;2022-12-18T04:46:16;16.07;;;5.73;;
14903;SDS011;7543;53.148;8.234;2022-12-18T04:48:45;13.83;;;6.20;;
14903;SDS011;7543;53.148;8.234;2022-12-18T04:51:13;13.77;;;6.20;;
14903;SDS011;7543;53.148;8.234;2022-12-18T04:53:41;13.13;;;5.23;;
14903;SDS011;7543;53.148;8.234;2022-12-18T04:56:10;15.40;;;5.43;;
14903;SDS011;7543;53.148;8.234;2022-12-18T04:58:40;15.77;;;5.13;;
14903;SDS011;7543;53.148;8.234;2022-12-18T05:01:09;10.67;;;4.87;;
14903;SDS011;7543;53.148;8.234;2022-12-18T05:03:42;15.20;;;5.73;;
14903;SDS011;7543;53.148;8.234;2022-12-18T05:06:10;11.20;;;5.60;;
14903;SDS011;7543;53.148;8.234;2022-12-18T05:08:38;10.87;;;4.77;;
14903;SDS011;7543;53.148;8.234;2022-12-18T05:11:07;7.63;;;4.67;;
14903;SDS011;7543;53.148;8.234;2022-12-18T05:13:36;16.13;;;6.93;;
14903;SDS011;7543;53.148;8.234;2022-12-18T05:16:05;17.40;;;6.50;;
14903;SDS011;7543;53.148;8.234;2022-12-18T05:18:34;10.37;;;5.17;;
14903;SDS011;7543;53.148;8.234;2022-12-18T05:21:04;16.93;;;5.97;;
14903;SDS011;7543;53.148;8.234;2022-12-18T05:23:32;13.50;;;5.17;;
14903;SDS011;7543;53.148;8.234;2022-12-18T05:26:02;13.47;;;5.13;;
14903;SDS011;7543;53.148;8.234;2022-12-18T05:28:32;10.20;;;4.87;;
14903;SDS011;7543;53.148;8.234;2022-12-18T05:31:02;11.37;;;5.87;;
14903;SDS011;7543;53.148;8.234;2022-12-18T05:33:31;10.80;;;4.90;;
14903;SDS011;7543;53.148;8.234;2022-12-18T05:36:01;10.27;;;4.70;;
14903;SDS011;7543;53.148;8.234;2022-12-18T05:38:33;9.33;;;4.17;;
14903;SDS011;7543;53.148;8.234;2022-12-18T05:41:02;8.43;;;3.97;;
14903;SDS011;7543;53.148;8.234;2022-12-18T05:43:30;13.90;;;4.37;;
14903;SDS011;7543;53.148;8.234;2022-12-18T05:46:02;13.50;;;5.63;;
14903;SDS011;7543;53.148;8.234;2022-12-18T05:48:31;16.80;;;5.40;;
14903;SDS011;7543;53.148;8.234;2022-12-18T05:51:04;14.37;;;5.17;;
14903;SDS011;7543;53.148;8.234;2022-12-18T05:53:34;11.07;;;4.87;;
14903;SDS011;7543;53.148;8.234;2022-12-18T05:56:06;10.63;;;4.10;;
14903;SDS011;7543;53.148;8.234;2022-12-18T05:58:36;5.83;;;3.73;;
14903;SDS011;7543;53.148;8.234;2022-12-18T06:01:08;10.87;;;4.87;;
14903;SDS011;7543;53.148;8.234;2022-12-18T06:03:38;14.87;;;4.50;;
14903;SDS011;7543;53.148;8.234;2022-12-18T06:06:13;13.63;;;4.90;;
14903;SDS011;7543;53.148;8.234;2022-12-18T06:08:42;16.13;;;4.00;;
14903;SDS011;7543;53.148;8.234;2022-12-18T06:11:10;7.10;;;4.33;;
14903;SDS011;7543;53.148;8.234;2022-12-18T06:13:39;11.50;;;4.70;;
14903;SDS011;7543;53.148;8.234;2022-12-18T06:16:07;8.80;;;4.70;;
14903;SDS011;7543;53.148;8.234;2022-12-18T06:18:35;10.97;;;4.33;;
14903;SDS011;7543;53.148;8.234;2022-12-18T06:21:06;10.43;;;4.07;;
14903;SDS011;7543;53.148;8.234;2022-12-18T06:23:35;9.83;;;3.60;;
14903;SDS011;7543;53.148;8.234;2022-12-18T06:26:04;9.40;;;5.20;;
14903;SDS011;7543;53.148;8.234;2022-12-18T06:28:33;8.37;;;4.00;;
14903;SDS011;7543;53.148;8.234;2022-12-18T06:31:02;7.77;;;3.37;;
14903;SDS011;7543;53.148;8.234;2022-12-18T06:33:30;8.53;;;4.43;;
14903;SDS011;7543;53.148;8.234;2022-12-18T06:35:59;7.63;;;4.17;;
14903;SDS011;7543;53.148;8.234;2022-12-18T06:38:28;6.70;;;4.13;;
14903;SDS011;7543;53.148;8.234;2022-12-18T06:40:57;7.23;;;4.17;;
14903;SDS011;7543;53.148;8.234;2022-12-18T06:43:25;6.70;;;4.00;;
14903;SDS011;7543;53.148;8.234;2022-12-18T06:45:59;9.70;;;3.93;;
14903;SDS011;7543;53.148;8.234;2022-12-18T06:48:28;11.50;;;4.07;;
14903;SDS011;7543;53.148;8.234;2022-12-18T06:50:56;9.07;;;4.60;;
14903;SDS011;7543;53.148;8.234;2022-12-18T06:53:24;9.77;;;4.73;;
14903;SDS011;7543;53.148;8.234;2022-12-18T06:55:53;8.40;;;4.70;;
14903;SDS011;7543;53.148;8.234;2022-12-18T06:58:28;9.17;;;3.83;;
14903;SDS011;7543;53.148;8.234;2022-12-18T07:00:59;7.83;;;3.93;;
14903;SDS011;7543;53.148;8.234;2022-12-18T07:03:27;11.03;;;3.83;;
14903;SDS011;7543;53.148;8.234;2022-12-18T07:05:56;6.73;;;2.87;;
14903;SDS011;7543;53.148;8.234;2022-12-18T07:08:24;8.17;;;3.77;;
14903;SDS011;7543;53.148;8.234;2022-12-18T07:10:52;9.17;;;3.57;;
14903;SDS011;7543;53.148;8.234;2022-12-18T07:13:20;9.50;;;4.27;;
14903;SDS011;7543;53.148;8.234;2022-12-18T07:15:50;8.70;;;4.53;;
14903;SDS011;7543;53.148;8.234;2022-12-18T07:18:18;10.20;;;3.57;;
14903;SDS011;7543;53.148;8.234;2022-12-18T07:20:46;17.47;;;4.43;;
14903;SDS011;7543;53.148;8.234;2022-12-18T07:23:14;7.57;;;3.60;;
14903;SDS011;7543;53.148;8.234;2022-12-18T07:25:42;6.90;;;3.63;;
14903;SDS011;7543;53.148;8.234;2022-12-18T07:28:10;7.33;;;3.20;;
14903;SDS011;7543;53.148;8.234;2022-12-18T07:30:39;8.13;;;3.77;;
14903;SDS011;7543;53.148;8.234;2022-12-18T07:33:08;12.77;;;4.13;;
14903;SDS011;7543;53.148;8.234;2022-12-18T07:35:36;10.17;;;3.40;;
14903;SDS011;7543;53.148;8.234;2022-12-18T07:38:04;8.17;;;3.33;;
14903;SDS011;7543;53.148;8.234;2022-12-18T07:40:33;8.37;;;3.53;;
14903;SDS011;7543;53.148;8.234;2022-12-18T07:43:01;8.43;;;2.70;;
14903;SDS011;7543;53.148;8.234;2022-12-18T07:45:29;8.77;;;3.90;;
14903;SDS011;7543;53.148;8.234;2022-12-18T07:47:57;8.27;;;3.73;;
14903;SDS011;7543;53.148;8.234;2022-12-18T07:50:27;9.20;;;3.30;;
14903;SDS011;7543;53.148;8.234;2022-12-18T07:52:55;5.77;;;3.47;;
14903;SDS011;7543;53.148;8.234;2022-12-18T07:55:23;9.00;;;3.97;;
14903;SDS011;7543;53.148;8.234;2022-12-18T07:57:51;11.43;;;3.67;;
14903;SDS011;7543;53.148;8.234;2022-12-18T08:00:19;8.03;;;4.43;;
14903;SDS011;7543;53.148;8.234;2022-12-18T08:02:47;5.97;;;2.60;;
14903;SDS011;7543;53.148;8.234;2022-12-18T08:05:15;6.30;;;3.27;;
14903;SDS011;7543;53.148;8.234;2022-12-18T08:07:45;7.53;;;3.53;;
14903;SDS011;7543;53.148;8.234;2022-12-18T08:10:13;5.40;;;3.33;;
14903;SDS011;7543;53.148;8.234;2022-12-18T08:12:42;10.50;;;3.83;;
14903;SDS011;7543;53.148;8.234;2022-12-18T08:15:10;6.83;;;3.00;;
14903;SDS011;7543;53.148;8.234;2022-12-18T08:17:38;11.97;;;3.60;;
14903;SDS011;7543;53.148;8.234;2022-12-18T08:20:07;7.50;;;3.97;;
14903;SDS011;7543;53.148;8.234;2022-12-18T08:22:36;5.13;;;3.07;;
14903;SDS011;7543;53.148;8.234;2022-12-18T08:25:08;7.83;;;3.17;;
14903;SDS011;7543;53.148;8.234;2022-12-18T08:27:37;5.10;;;2.20;;
14903;SDS011;7543;53.148;8.234;2022-12-18T08:30:05;4.73;;;2.70;;
14903;SDS011;7543;53.148;8.234;2022-12-18T08:32:34;7.00;;;3.10;;
14903;SDS011;7543;53.148;8.234;2022-12-18T08:35:03;5.40;;;2.47;;
14903;SDS011;7543;53.148;8.234;2022-12-18T08:37:31;7.40;;;3.37;;
14903;SDS011;7543;53.148;8.234;2022-12-18T08:40:00;4.20;;;2.70;;
14903;SDS011;7543;53.148;8.234;2022-12-18T08:42:29;6.23;;;3.00;;
14903;SDS011;7543;53.148;8.234;2022-12-18T08:45:15;9.03;;;4.90;;
14903;SDS011;7543;53.148;8.234;2022-12-18T08:47:44;11.40;;;5.43;;
14903;SDS011;7543;53.148;8.234;2022-12-18T08:50:12;14.33;;;6.10;;
14903;SDS011;7543;53.148;8.234;2022-12-18T08:52:41;14.10;;;5.07;;
14903;SDS011;7543;53.148;8.234;2022-12-18T08:55:09;13.73;;;4.77;;
14903;SDS011;7543;53.148;8.234;2022-12-18T08:57:39;7.00;;;4.07;;
14903;SDS011;7543;53.148;8.234;2022-12-18T09:00:07;7.83;;;4.23;;
14903;SDS011;7543;53.148;8.234;2022-12-18T09:02:36;8.23;;;3.77;;
14903;SDS011;7543;53.148;8.234;2022-12-18T09:05:04;9.33;;;4.10;;
14903;SDS011;7543;53.148;8.234;2022-12-18T09:07:33;6.00;;;4.13;;
14903;SDS011;7543;53.148;8.234;2022-12-18T09:10:01;8.43;;;4.23;;
14903;SDS011;7543;53.148;8.234;2022-12-18T09:12:30;11.07;;;5.57;;
14903;SDS011;7543;53.148;8.234;2022-12-18T09:14:59;8.80;;;4.13;;
14903;SDS011;7543;53.148;8.234;2022-12-18T09:17:27;7.93;;;4.27;;
14903;SDS011;7543;53.148;8.234;2022-12-18T09:19:55;7.23;;;3.63;;
14903;SDS011;7543;53.148;8.234;2022-12-18T09:22:24;7.70;;;3.80;;
14903;SDS011;7543;53.148;8.234;2022-12-18T09:24:52;8.87;;;3.83;;
14903;SDS011;7543;53.148;8.234;2022-12-18T09:27:20;9.87;;;4.10;;
14903;SDS011;7543;53.148;8.234;2022-12-18T09:29:48;7.37;;;3.80;;
14903;SDS011;7543;53.148;8.234;2022-12-18T09:32:18;9.83;;;4.33;;
14903;SDS011;7543;53.148;8.234;2022-12-18T09:34:46;7.73;;;4.43;;
14903;SDS011;7543;53.148;8.234;2022-12-18T09:37:14;7.10;;;4.33;;
14903;SDS011;7543;53.148;8.234;2022-12-18T09:39:42;12.47;;;4.77;;
14903;SDS011;7543;53.148;8.234;2022-12-18T09:42:11;10.63;;;4.53;;
14903;SDS011;7543;53.148;8.234;2022-12-18T09:44:41;6.83;;;3.43;;
14903;SDS011;7543;53.148;8.234;2022-12-18T09:47:13;8.87;;;3.97;;
14903;SDS011;7543;53.148;8.234;2022-12-18T09:49:45;5.30;;;3.33;;
14903;SDS011;7543;53.148;8.234;2022-12-18T09:52:16;8.10;;;4.87;;
14903;SDS011;7543;53.148;8.234;2022-12-18T09:54:47;7.50;;;3.77;;
14903;SDS011;7543;53.148;8.234;2022-12-18T09:57:18;5.57;;;3.83;;
14903;SDS011;7543;53.148;8.234;2022-12-18T09:59:49;7.67;;;3.30;;
14903;SDS011;7543;53.148;8.234;2022-12-18T10:02:20;9.37;;;4.47;;
14903;SDS011;7543;53.148;8.234;2022-12-18T10:04:53;7.40;;;3.83;;
14903;SDS011;7543;53.148;8.234;2022-12-18T10:07:32;9.17;;;4.17;;
14903;SDS011;7543;53.148;8.234;2022-12-18T10:10:10;8.23;;;4.23;;
14903;SDS011;7543;53.148;8.234;2022-12-18T10:12:45;9.03;;;4.83;;
14903;SDS011;7543;53.148;8.234;2022-12-18T10:15:19;12.53;;;5.10;;
14903;SDS011;7543;53.148;8.234;2022-12-18T10:17:54;7.87;;;3.67;;
14903;SDS011;7543;53.148;8.234;2022-12-18T10:20:30;6.97;;;3.77;;
14903;SDS011;7543;53.148;8.234;2022-12-18T10:23:07;6.23;;;3.40;;
14903;SDS011;7543;53.148;8.234;2022-12-18T10:25:44;6.37;;;3.83;;
14903;SDS011;7543;53.148;8.234;2022-12-18T10:28:18;9.07;;;3.43;;
14903;SDS011;7543;53.148;8.234;2022-12-18T10:30:46;7.43;;;3.43;;
14903;SDS011;7543;53.148;8.234;2022-12-18T10:33:16;6.43;;;3.67;;
14903;SDS011;7543;53.148;8.234;2022-12-18T10:35:46;8.83;;;4.23;;
14903;SDS011;7543;53.148;8.234;2022-12-18T10:38:22;6.03;;;3.13;;
14903;SDS011;7543;53.148;8.234;2022-12-18T10:40:53;4.33;;;3.47;;
14903;SDS011;7543;53.148;8.234;2022-12-18T10:43:24;6.17;;;3.50;;
14903;SDS011;7543;53.148;8.234;2022-12-18T10:46:00;13.10;;;4.43;;
14903;SDS011;7543;53.148;8.234;2022-12-18T10:48:36;6.77;;;3.80;;
14903;SDS011;7543;53.148;8.234;2022-12-18T10:51:09;8.73;;;4.20;;
14903;SDS011;7543;53.148;8.234;2022-12-18T10:53:37;8.97;;;3.83;;
14903;SDS011;7543;53.148;8.234;2022-12-18T10:56:05;9.03;;;4.90;;
14903;SDS011;7543;53.148;8.234;2022-12-18T10:58:34;8.70;;;4.40;;
14903;SDS011;7543;53.148;8.234;2022-12-18T11:01:05;9.07;;;4.13;;
14903;SDS011;7543;53.148;8.234;2022-12-18T11:03:35;6.33;;;4.00;;
14903;SDS011;7543;53.148;8.234;2022-12-18T11:06:06;10.10;;;4.80;;
14903;SDS011;7543;53.148;8.234;2022-12-18T11:08:37;7.53;;;4.60;;
14903;SDS011;7543;53.148;8.234;2022-12-18T11:11:07;10.17;;;4.73;;
14903;SDS011;7543;53.148;8.234;2022-12-18T11:13:45;11.83;;;5.30;;
14903;SDS011;7543;53.148;8.234;2022-12-18T11:16:19;8.23;;;4.80;;
14903;SDS011;7543;53.148;8.234;2022-12-18T11:18:47;12.67;;;4.50;;
14903;SDS011;7543;53.148;8.234;2022-12-18T11:21:17;7.87;;;4.23;;
14903;SDS011;7543;53.148;8.234;2022-12-18T11:23:46;9.33;;;5.00;;
14903;SDS011;7543;53.148;8.234;2022-12-18T11:26:16;8.27;;;4.57;;
14903;SDS011;7543;53.148;8.234;2022-12-18T11:28:46;19.03;;;6.63;;
14903;SDS011;7543;53.148;8.234;2022-12-18T11:31:20;13.83;;;5.70;;
14903;SDS011;7543;53.148;8.234;2022-12-18T11:33:54;17.23;;;8.00;;
14903;SDS011;7543;53.148;8.234;2022-12-18T11:36:29;14.10;;;6.47;;
14903;SDS011;7543;53.148;8.234;2022-12-18T11:39:01;18.27;;;7.77;;
14903;SDS011;7543;53.148;8.234;2022-12-18T11:41:34;14.67;;;4.87;;
14903;SDS011;7543;53.148;8.234;2022-12-18T11:44:24;6.43;;;3.43;;
14903;SDS011;7543;53.148;8.234;2022-12-18T11:46:55;11.20;;;5.27;;
14903;SDS011;7543;53.148;8.234;2022-12-18T11:49:27;13.00;;;5.47;;
14903;SDS011;7543;53.148;8.234;2022-12-18T11:51:59;17.97;;;7.10;;
14903;SDS011;7543;53.148;8.234;2022-12-18T11:54:29;12.80;;;6.60;;
14903;SDS011;7543;53.148;8.234;2022-12-18T11:56:58;9.73;;;4.77;;
14903;SDS011;7543;53.148;8.234;2022-12-18T11:59:33;11.13;;;5.00;;
14903;SDS011;7543;53.148;8.234;2022-12-18T12:02:12;7.73;;;3.77;;
14903;SDS011;7543;53.148;8.234;2022-12-18T12:04:56;9.13;;;4.40;;
14903;SDS011;7543;53.148;8.234;2022-12-18T12:07:42;10.40;;;4.47;;
14903;SDS011;7543;53.148;8.234;2022-12-18T12:10:18;9.03;;;4.13;;
14903;SDS011;7543;53.148;8.234;2022-12-18T12:12:59;8.70;;;4.63;;
14903;SDS011;7543;53.148;8.234;2022-12-18T12:15:39;6.27;;;3.93;;
14903;SDS011;7543;53.148;8.234;2022-12-18T12:18:14;9.70;;;4.97;;
14903;SDS011;7543;53.148;8.234;2022-12-18T12:20:49;7.70;;;3.90;;
14903;SDS011;7543;53.148;8.234;2022-12-18T12:23:28;10.10;;;4.57;;
14903;SDS011;7543;53.148;8.234;2022-12-18T12:26:03;8.47;;;5.07;;
14903;SDS011;7543;53.148;8.234;2022-12-18T12:28:48;6.53;;;3.97;;
14903;SDS011;7543;53.148;8.234;2022-12-18T12:31:26;14.67;;;4.97;;
14903;SDS011;7543;53.148;8.234;2022-12-18T12:34:03;7.43;;;4.03;;
14903;SDS011;7543;53.148;8.234;2022-12-18T12:36:36;8.90;;;4.13;;
14903;SDS011;7543;53.148;8.234;2022-12-18T12:39:13;6.83;;;3.90;;
14903;SDS011;7543;53.148;8.234;2022-12-18T12:41:43;9.10;;;3.83;;
14903;SDS011;7543;53.148;8.234;2022-12-18T12:44:32;10.77;;;4.80;;
14903;SDS011;7543;53.148;8.234;2022-12-18T12:47:05;8.10;;;4.20;;
14903;SDS011;7543;53.148;8.234;2022-12-18T12:49:37;8.90;;;4.73;;
14903;SDS011;7543;53.148;8.234;2022-12-18T12:52:10;5.17;;;3.50;;
14903;SDS011;7543;53.148;8.234;2022-12-18T12:54:41;9.20;;;4.40;;
14903;SDS011;7543;53.148;8.234;2022-12-18T12:57:11;6.50;;;3.63;;
14903;SDS011;7543;53.148;8.234;2022-12-18T12:59:45;7.60;;;3.57;;
14903;SDS011;7543;53.148;8.234;2022-12-18T13:02:17;6.40;;;2.97;;
14903;SDS011;7543;53.148;8.234;2022-12-18T13:04:49;6.00;;;3.23;;
14903;SDS011;7543;53.148;8.234;2022-12-18T13:07:23;5.73;;;3.10;;
14903;SDS011;7543;53.148;8.234;2022-12-18T13:10:22;6.13;;;3.53;;
14903;SDS011;7543;53.148;8.234;2022-12-18T13:12:56;5.40;;;3.03;;
14903;SDS011;7543;53.148;8.234;2022-12-18T13:15:32;6.13;;;3.03;;
14903;SDS011;7543;53.148;8.234;2022-12-18T13:18:03;7.30;;;3.67;;
14903;SDS011;7543;53.148;8.234;2022-12-18T13:20:33;8.47;;;4.13;;
14903;SDS011;7543;53.148;8.234;2022-12-18T13:23:01;7.63;;;4.00;;
14903;SDS011;7543;53.148;8.234;2022-12-18T13:25:48;8.30;;;4.60;;
14903;SDS011;7543;53.148;8.234;2022-12-18T13:28:18;9.53;;;5.23;;
14903;SDS011;7543;53.148;8.234;2022-12-18T13:30:55;14.40;;;4.80;;
14903;SDS011;7543;53.148;8.234;2022-12-18T13:36:29;12.00;;;5.43;;
14903;SDS011;7543;53.148;8.234;2022-12-18T13:48:14;7.13;;;3.60;;
14903;SDS011;7543;53.148;8.234;2022-12-18T13:50:47;5.40;;;3.53;;
14903;SDS011;7543;53.148;8.234;2022-12-18T13:53:18;6.40;;;3.30;;
14903;SDS011;7543;53.148;8.234;2022-12-18T13:55:49;5.80;;;3.50;;
14903;SDS011;7543;53.148;8.234;2022-12-18T13:58:19;12.20;;;5.67;;
14903;SDS011;7543;53.148;8.234;2022-12-18T14:00:47;11.13;;;7.10;;
14903;SDS011;7543;53.148;8.234;2022-12-18T14:03:18;12.13;;;8.03;;
14903;SDS011;7543;53.148;8.234;2022-12-18T14:05:52;9.70;;;4.00;;
14903;SDS011;7543;53.148;8.234;2022-12-18T14:08:25;6.37;;;3.47;;
14903;SDS011;7543;53.148;8.234;2022-12-18T14:10:57;7.60;;;3.67;;
14903;SDS011;7543;53.148;8.234;2022-12-18T14:13:28;5.40;;;3.63;;
14903;SDS011;7543;53.148;8.234;2022-12-18T14:15:57;9.37;;;3.63;;
14903;SDS011;7543;53.148;8.234;2022-12-18T14:18:29;5.60;;;3.13;;
14903;SDS011;7543;53.148;8.234;2022-12-18T14:21:02;8.67;;;3.60;;
14903;SDS011;7543;53.148;8.234;2022-12-18T14:23:32;8.17;;;3.30;;
14903;SDS011;7543;53.148;8.234;2022-12-18T14:26:02;7.37;;;3.90;;
14903;SDS011;7543;53.148;8.234;2022-12-18T14:28:43;6.23;;;3.70;;
14903;SDS011;7543;53.148;8.234;2022-12-18T14:31:16;9.90;;;3.23;;
14903;SDS011;7543;53.148;8.234;2022-12-18T14:33:45;7.40;;;3.93;;
14903;SDS011;7543;53.148;8.234;2022-12-18T14:36:15;8.07;;;3.67;;
14903;SDS011;7543;53.148;8.234;2022-12-18T14:38:47;6.50;;;4.13;;
14903;SDS011;7543;53.148;8.234;2022-12-18T14:41:17;6.03;;;3.17;;
14903;SDS011;7543;53.148;8.234;2022-12-18T14:43:47;6.40;;;3.63;;
14903;SDS011;7543;53.148;8.234;2022-12-18T14:46:27;13.57;;;3.70;;
14903;SDS011;7543;53.148;8.234;2022-12-18T14:48:58;9.90;;;3.50;;
14903;SDS011;7543;53.148;8.234;2022-12-18T14:51:27;12.50;;;4.23;;
14903;SDS011;7543;53.148;8.234;2022-12-18T14:53:56;9.93;;;3.90;;
14903;SDS011;7543;53.148;8.234;2022-12-18T14:56:27;6.80;;;3.40;;
14903;SDS011;7543;53.148;8.234;2022-12-18T14:58:58;7.03;;;3.63;;
14903;SDS011;7543;53.148;8.234;2022-12-18T15:01:28;6.47;;;3.47;;
14903;SDS011;7543;53.148;8.234;2022-12-18T15:03:58;8.97;;;3.70;;
14903;SDS011;7543;53.148;8.234;2022-12-18T15:06:29;9.27;;;3.73;;
14903;SDS011;7543;53.148;8.234;2022-12-18T15:08:59;9.33;;;3.43;;
14903;SDS011;7543;53.148;8.234;2022-12-18T15:11:32;6.87;;;3.87;;
14903;SDS011;7543;53.148;8.234;2022-12-18T15:14:28;7.83;;;2.83;;
14903;SDS011;7543;53.148;8.234;2022-12-18T15:16:59;6.10;;;3.50;;
14903;SDS011;7543;53.148;8.234;2022-12-18T15:19:32;6.07;;;3.70;;
14903;SDS011;7543;53.148;8.234;2022-12-18T15:22:13;6.83;;;3.53;;
14903;SDS011;7543;53.148;8.234;2022-12-18T15:24:46;10.63;;;4.27;;
14903;SDS011;7543;53.148;8.234;2022-12-18T15:27:28;7.40;;;3.73;;
14903;SDS011;7543;53.148;8.234;2022-12-18T15:32:51;6.53;;;4.27;;
14903;SDS011;7543;53.148;8.234;2022-12-18T15:35:21;8.60;;;4.30;;